Terminal Aerodrome Forecast
Issued by NWS

Home | Current Version | Previous Version | Text Only | Print | Product List | Glossary On
Versions: 1 2 3 4 5 6 7 8 9 10 11 12 13 14 15 16 17 18
000
FTUS42 KTAE 282320
TAFVLD
TAF
KVLD 282320Z 2900/2924 00000KT P6SM FEW250
     FM290500 00000KT P6SM SCT100 SCT250
     FM291400 05006KT P6SM SCT070=

USA.gov is the U.S. government's official web portal to all federal, state and local government web resources and services.